Time;durP1;ratioP1;P1;durP2;ratioP2;P2;SDS_P1;SDS_P2;PMS_P1;PMS_P2;Temp;Humidity;BMP_temperature;BMP_pressure;BME280_temperature;BME280_humidity;BME280_pressure;Samples;Min_cycle;Max_cycle;Signal;HPM_P1;HPM_P2
2022/06/28 00:00:46;;;;;;;11.27;10.02;;;;;;;;;;5052747;28;20099;-69
2022/06/28 00:03:12;;;;;;;11.38;10.38;;;;;;;;;;5052457;28;20053;-70
2022/06/28 00:05:38;;;;;;;15.52;9.77;;;;;;;;;;5051287;28;20477;-69
2022/06/28 00:08:04;;;;;;;15.05;10.18;;;;;;;;;;5052581;28;20072;-69
2022/06/28 00:10:29;;;;;;;13.38;10.20;;;;;;;;;;5052127;28;20630;-70
2022/06/28 00:12:55;;;;;;;12.45;9.98;;;;;;;;;;5052569;28;20562;-69
2022/06/28 00:18:06;;;;;;;13.95;10.27;;;;;;;;;;5052262;28;20099;-70
2022/06/28 00:20:32;;;;;;;13.02;10.35;;;;;;;;;;5052085;28;20138;-70
2022/06/28 00:22:58;;;;;;;12.77;10.75;;;;;;;;;;5052302;28;20517;-71
2022/06/28 00:25:24;;;;;;;11.93;10.88;;;;;;;;;;5052141;28;20304;-69
2022/06/28 00:27:50;;;;;;;16.10;11.25;;;;;;;;;;5052616;28;20065;-69
2022/06/28 00:30:16;;;;;;;11.95;10.73;;;;;;;;;;5052614;28;20061;-69
2022/06/28 00:32:42;;;;;;;11.00;10.10;;;;;;;;;;5033159;28;20541;-69
2022/06/28 00:35:08;;;;;;;11.15;10.13;;;;;;;;;;5033541;28;20057;-70
2022/06/28 00:37:34;;;;;;;14.02;10.95;;;;;;;;;;5014778;28;20095;-68
2022/06/28 00:40:00;;;;;;;12.30;11.30;;;;;;;;;;5014783;28;20049;-70
2022/06/28 00:42:26;;;;;;;11.93;10.68;;;;;;;;;;5014701;28;20501;-69
2022/06/28 00:44:52;;;;;;;15.25;11.45;;;;;;;;;;5032011;28;20045;-70
2022/06/28 00:47:18;;;;;;;12.95;11.70;;;;;;;;;;5031970;28;20037;-68
2022/06/28 00:49:43;;;;;;;11.48;10.35;;;;;;;;;;5031827;28;20069;-69
2022/06/28 00:52:09;;;;;;;17.27;11.80;;;;;;;;;;5031698;28;20053;-68
2022/06/28 00:54:35;;;;;;;11.73;10.60;;;;;;;;;;5032437;28;20465;-70
2022/06/28 00:57:01;;;;;;;12.43;11.20;;;;;;;;;;5031767;28;20099;-70
2022/06/28 00:59:27;;;;;;;18.30;11.15;;;;;;;;;;5030069;28;20053;-69
2022/06/28 01:01:53;;;;;;;13.25;11.63;;;;;;;;;;4997556;28;20107;-69
2022/06/28 01:04:19;;;;;;;13.80;11.68;;;;;;;;;;5013395;28;20044;-71
2022/06/28 01:06:45;;;;;;;13.18;11.95;;;;;;;;;;4997638;28;20034;-68
2022/06/28 01:09:12;;;;;;;16.30;11.82;;;;;;;;;;4997368;28;20049;-70
2022/06/28 01:11:37;;;;;;;15.65;11.40;;;;;;;;;;4981038;28;20045;-69
2022/06/28 01:14:08;;;;;;;18.38;12.25;;;;;;;;;;5030116;28;20153;-70
2022/06/28 01:17:06;;;;;;;14.95;12.07;;;;;;;;;;5020417;28;20368;-70
2022/06/28 01:19:40;;;;;;;16.48;12.55;;;;;;;;;;5029876;28;20073;-70
2022/06/28 01:22:18;;;;;;;14.60;12.10;;;;;;;;;;5013387;28;20398;-69
2022/06/28 01:24:44;;;;;;;12.88;11.80;;;;;;;;;;5031364;28;20465;-70
2022/06/28 01:27:14;;;;;;;11.90;10.98;;;;;;;;;;4997758;28;20045;-70
2022/06/28 01:29:40;;;;;;;13.48;11.50;;;;;;;;;;5012988;28;20041;-69
2022/06/28 01:32:26;;;;;;;14.57;12.10;;;;;;;;;;5030828;28;20468;-70
2022/06/28 01:34:53;;;;;;;13.40;11.38;;;;;;;;;;5013308;28;20038;-69
2022/06/28 01:37:23;;;;;;;14.55;11.98;;;;;;;;;;5013057;28;20506;-70
2022/06/28 01:39:49;;;;;;;12.90;11.50;;;;;;;;;;4997001;28;20084;-70
2022/06/28 01:42:15;;;;;;;12.65;11.65;;;;;;;;;;5013137;28;20052;-70
2022/06/28 01:44:41;;;;;;;14.02;12.73;;;;;;;;;;5012939;28;20068;-70
2022/06/28 01:47:34;;;;;;;13.13;11.70;;;;;;;;;;5027542;28;20077;-69
2022/06/28 01:50:00;;;;;;;14.20;12.88;;;;;;;;;;5030681;28;20164;-70
2022/06/28 01:52:30;;;;;;;12.98;11.70;;;;;;;;;;5029366;28;20041;-69
2022/06/28 01:55:03;;;;;;;16.52;12.55;;;;;;;;;;4997613;28;20140;-69
2022/06/28 01:57:30;;;;;;;13.30;12.05;;;;;;;;;;5012647;28;20044;-69
2022/06/28 01:59:59;;;;;;;14.18;11.48;;;;;;;;;;5012757;28;20049;-71
2022/06/28 02:02:40;;;;;;;13.00;12.10;;;;;;;;;;5029696;28;20033;-70
2022/06/28 02:05:25;;;;;;;12.90;11.80;;;;;;;;;;5015401;28;20501;-70
2022/06/28 02:07:52;;;;;;;13.60;12.27;;;;;;;;;;5012872;28;20044;-69
2022/06/28 02:10:20;;;;;;;12.82;11.57;;;;;;;;;;4996430;28;20061;-69
2022/06/28 02:12:46;;;;;;;13.05;11.80;;;;;;;;;;5029205;28;20092;-70
2022/06/28 02:15:13;;;;;;;15.02;12.90;;;;;;;;;;5030032;28;20523;-69
2022/06/28 02:17:41;;;;;;;12.63;11.63;;;;;;;;;;5012088;28;20042;-70
2022/06/28 02:20:07;;;;;;;13.15;12.00;;;;;;;;;;5028774;28;20057;-70
2022/06/28 02:22:33;;;;;;;15.98;11.98;;;;;;;;;;5028649;28;20377;-69
2022/06/28 02:24:59;;;;;;;13.10;12.10;;;;;;;;;;5012419;28;20067;-71
2022/06/28 02:27:25;;;;;;;11.98;10.88;;;;;;;;;;5012102;28;20033;-69
2022/06/28 02:29:50;;;;;;;13.20;11.93;;;;;;;;;;5030015;28;20061;-69
2022/06/28 02:32:16;;;;;;;16.80;12.07;;;;;;;;;;5029975;28;20073;-70
2022/06/28 02:40:22;;;;;;;15.15;11.70;;;;;;;;;;5030350;28;20084;-70
2022/06/28 02:42:48;;;;;;;15.70;11.32;;;;;;;;;;5030643;28;20069;-69
2022/06/28 02:45:14;;;;;;;14.30;11.98;;;;;;;;;;5031494;28;20045;-69
2022/06/28 02:47:40;;;;;;;18.98;11.02;;;;;;;;;;5030830;28;20553;-70
2022/06/28 02:50:06;;;;;;;12.20;11.00;;;;;;;;;;5030526;28;20107;-70
2022/06/28 02:52:32;;;;;;;14.55;10.57;;;;;;;;;;5030125;28;20461;-70
2022/06/28 02:54:58;;;;;;;11.38;10.23;;;;;;;;;;5029565;28;20591;-70
2022/06/28 02:57:24;;;;;;;12.10;10.48;;;;;;;;;;5029450;28;20124;-70
2022/06/28 02:59:50;;;;;;;14.18;11.32;;;;;;;;;;5012021;28;20103;-69
2022/06/28 03:02:16;;;;;;;12.52;11.23;;;;;;;;;;5011808;28;20655;-69
2022/06/28 03:04:41;;;;;;;18.52;10.50;;;;;;;;;;5029416;28;20045;-69
2022/06/28 03:07:08;;;;;;;16.67;10.85;;;;;;;;;;5011880;28;20041;-69
2022/06/28 03:09:34;;;;;;;11.38;10.02;;;;;;;;;;5011466;28;20052;-70
2022/06/28 03:12:01;;;;;;;12.73;10.20;;;;;;;;;;5012121;28;20111;-69
2022/06/28 03:14:27;;;;;;;16.20;10.15;;;;;;;;;;5029613;28;20468;-70
2022/06/28 03:16:52;;;;;;;11.43;10.35;;;;;;;;;;4999389;28;20057;-70
2022/06/28 03:19:18;;;;;;;10.85;9.93;;;;;;;;;;5033370;28;20128;-70
2022/06/28 03:21:44;;;;;;;11.93;10.10;;;;;;;;;;5015471;28;20132;-69
2022/06/28 03:24:10;;;;;;;11.40;10.27;;;;;;;;;;5015560;28;20417;-69
2022/06/28 03:26:36;;;;;;;10.45;9.40;;;;;;;;;;5031806;28;20045;-69
2022/06/28 03:29:02;;;;;;;12.00;9.27;;;;;;;;;;5000202;28;20425;-70
2022/06/28 03:31:29;;;;;;;10.57;9.50;;;;;;;;;;5032700;28;20441;-69
2022/06/28 03:33:54;;;;;;;10.20;9.27;;;;;;;;;;5035460;28;20041;-72
2022/06/28 03:36:20;;;;;;;13.48;9.05;;;;;;;;;;5034826;28;20050;-71
2022/06/28 03:38:47;;;;;;;10.68;9.70;;;;;;;;;;5015348;28;20050;-71
2022/06/28 03:41:24;;;;;;;10.63;9.68;;;;;;;;;;5015381;28;20124;-69
2022/06/28 03:44:00;;;;;;;10.23;9.27;;;;;;;;;;5015403;28;20053;-70
2022/06/28 03:46:27;;;;;;;9.85;8.90;;;;;;;;;;5031273;28;20225;-69
2022/06/28 03:49:05;;;;;;;13.18;9.73;;;;;;;;;;5031767;28;20080;-69
2022/06/28 03:51:49;;;;;;;13.48;9.32;;;;;;;;;;5031418;28;20145;-69
2022/06/28 03:54:24;;;;;;;11.48;8.90;;;;;;;;;;5015095;28;20052;-70
2022/06/28 03:57:01;;;;;;;11.50;9.27;;;;;;;;;;5031792;28;20049;-69
2022/06/28 03:59:27;;;;;;;11.05;8.90;;;;;;;;;;5032508;28;20052;-69
2022/06/28 04:01:53;;;;;;;9.82;9.10;;;;;;;;;;5031445;28;20042;-69
2022/06/28 04:04:20;;;;;;;9.75;8.85;;;;;;;;;;4982630;28;20069;-68
2022/06/28 04:06:47;;;;;;;11.73;9.30;;;;;;;;;;5031775;28;20054;-69
2022/06/28 04:09:12;;;;;;;9.63;8.82;;;;;;;;;;5033111;28;20417;-70
2022/06/28 04:11:42;;;;;;;10.27;8.43;;;;;;;;;;5030866;28;20053;-70
2022/06/28 04:14:13;;;;;;;8.40;7.78;;;;;;;;;;5014794;28;20045;-69
2022/06/28 04:16:42;;;;;;;8.68;7.95;;;;;;;;;;5032501;28;20048;-69
2022/06/28 04:19:10;;;;;;;8.38;7.80;;;;;;;;;;5014784;28;20067;-70
2022/06/28 04:21:46;;;;;;;10.70;8.27;;;;;;;;;;5030653;28;20083;-71
2022/06/28 04:24:15;;;;;;;14.10;7.88;;;;;;;;;;5014674;28;20513;-70
2022/06/28 04:26:56;;;;;;;8.05;7.35;;;;;;;;;;5030441;28;20103;-71
2022/06/28 04:29:25;;;;;;;11.00;7.75;;;;;;;;;;5031018;28;20072;-70
2022/06/28 04:31:51;;;;;;;8.32;7.72;;;;;;;;;;5031398;28;20572;-70
2022/06/28 04:34:17;;;;;;;9.10;8.40;;;;;;;;;;5032644;28;20069;-70
2022/06/28 04:36:46;;;;;;;8.60;7.90;;;;;;;;;;5014221;28;20267;-71
2022/06/28 04:39:12;;;;;;;9.48;8.77;;;;;;;;;;5032062;28;20048;-69
2022/06/28 04:41:49;;;;;;;11.05;9.05;;;;;;;;;;5031046;28;20042;-68
2022/06/28 04:44:20;;;;;;;9.85;8.82;;;;;;;;;;5014623;28;20069;-71
2022/06/28 04:46:51;;;;;;;12.52;9.52;;;;;;;;;;5014901;28;20045;-69
2022/06/28 04:49:20;;;;;;;9.70;8.98;;;;;;;;;;4997665;28;20049;-69
2022/06/28 04:51:51;;;;;;;10.93;9.82;;;;;;;;;;5013821;28;20076;-70
2022/06/28 04:54:24;;;;;;;10.77;9.77;;;;;;;;;;5014073;28;20429;-70
2022/06/28 04:57:19;;;;;;;10.80;9.88;;;;;;;;;;5021639;28;20044;-69
2022/06/28 04:59:51;;;;;;;10.48;9.77;;;;;;;;;;5013623;28;20079;-71
2022/06/28 05:02:36;;;;;;;14.38;10.90;;;;;;;;;;5013769;28;20033;-72
2022/06/28 05:05:05;;;;;;;13.60;10.52;;;;;;;;;;4998027;28;20118;-70
2022/06/28 05:07:36;;;;;;;10.23;9.40;;;;;;;;;;5013619;28;20049;-71
2022/06/28 05:10:05;;;;;;;10.85;8.80;;;;;;;;;;4997817;28;20061;-70
2022/06/28 05:12:32;;;;;;;9.57;8.60;;;;;;;;;;5013634;28;20029;-71
2022/06/28 05:14:58;;;;;;;10.15;8.30;;;;;;;;;;5031272;28;20068;-71
2022/06/28 05:17:33;;;;;;;9.10;8.50;;;;;;;;;;5012976;28;20528;-72
2022/06/28 05:19:59;;;;;;;14.23;9.07;;;;;;;;;;5013558;28;20120;-71
2022/06/28 05:22:25;;;;;;;8.75;8.05;;;;;;;;;;5013456;28;20124;-71
2022/06/28 05:25:20;;;;;;;9.05;8.25;;;;;;;;;;4960048;28;20424;-72
2022/06/28 05:27:47;;;;;;;11.27;7.72;;;;;;;;;;5031129;28;20041;-70
2022/06/28 05:30:13;;;;;;;8.60;7.78;;;;;;;;;;5013189;28;20062;-70
2022/06/28 05:32:39;;;;;;;10.05;7.20;;;;;;;;;;5013080;28;20060;-70
2022/06/28 05:35:05;;;;;;;8.75;7.85;;;;;;;;;;5013244;28;20137;-70
2022/06/28 05:37:31;;;;;;;8.10;7.43;;;;;;;;;;5028744;28;20128;-70
2022/06/28 05:39:57;;;;;;;7.85;7.38;;;;;;;;;;5030846;28;20037;-71
2022/06/28 05:42:23;;;;;;;8.63;7.80;;;;;;;;;;5030832;28;20099;-71
2022/06/28 05:44:49;;;;;;;16.10;6.85;;;;;;;;;;5012951;28;20643;-71
2022/06/28 05:47:15;;;;;;;8.15;7.35;;;;;;;;;;5029510;28;20092;-70
2022/06/28 05:49:40;;;;;;;8.45;7.13;;;;;;;;;;5030595;28;20099;-70
2022/06/28 05:52:06;;;;;;;7.70;6.72;;;;;;;;;;5029354;28;20144;-71
2022/06/28 05:54:34;;;;;;;7.57;7.07;;;;;;;;;;5012884;28;20073;-71
2022/06/28 05:57:00;;;;;;;7.65;7.15;;;;;;;;;;4996403;28;20497;-71
2022/06/28 05:59:27;;;;;;;8.30;7.55;;;;;;;;;;4997364;28;20045;-71
2022/06/28 06:01:55;;;;;;;8.55;7.50;;;;;;;;;;5028792;28;20140;-71
2022/06/28 06:04:21;;;;;;;14.15;8.10;;;;;;;;;;5030275;28;20049;-71
2022/06/28 06:06:47;;;;;;;8.70;7.90;;;;;;;;;;5012266;28;20057;-71
2022/06/28 06:09:13;;;;;;;9.07;8.38;;;;;;;;;;4996237;28;20037;-70
2022/06/28 06:11:39;;;;;;;9.13;7.93;;;;;;;;;;5011962;28;20053;-71
2022/06/28 06:14:05;;;;;;;8.35;7.85;;;;;;;;;;4996672;28;20103;-70
2022/06/28 06:16:31;;;;;;;6.95;6.25;;;;;;;;;;5012096;28;20049;-71
2022/06/28 06:18:57;;;;;;;6.55;5.80;;;;;;;;;;5012411;28;20056;-70
2022/06/28 06:21:23;;;;;;;6.40;6.00;;;;;;;;;;4996069;28;20513;-72
2022/06/28 06:23:49;;;;;;;6.47;5.88;;;;;;;;;;5012659;28;20041;-72
2022/06/28 06:26:28;;;;;;;6.85;6.15;;;;;;;;;;5030199;28;20072;-72
2022/06/28 06:28:54;;;;;;;6.28;5.68;;;;;;;;;;4995751;28;20421;-72
2022/06/28 06:31:20;;;;;;;6.60;6.05;;;;;;;;;;4995744;28;20053;-72
2022/06/28 06:34:16;;;;;;;5.68;5.25;;;;;;;;;;5030189;28;20042;-71
2022/06/28 06:36:46;;;;;;;5.25;4.85;;;;;;;;;;5011841;28;20151;-70
2022/06/28 06:39:14;;;;;;;8.18;5.03;;;;;;;;;;4996354;28;20045;-71
2022/06/28 06:41:40;;;;;;;5.72;5.18;;;;;;;;;;5013065;28;20037;-71
2022/06/28 06:44:07;;;;;;;5.97;5.10;;;;;;;;;;5012766;28;20080;-70
2022/06/28 06:46:32;;;;;;;7.90;5.00;;;;;;;;;;5029511;28;20099;-71
2022/06/28 06:48:58;;;;;;;5.53;5.03;;;;;;;;;;5029539;28;20053;-71
2022/06/28 06:51:25;;;;;;;8.18;5.10;;;;;;;;;;5028091;28;20085;-72
2022/06/28 06:53:51;;;;;;;5.30;4.90;;;;;;;;;;5028111;28;20092;-72
2022/06/28 06:56:17;;;;;;;6.55;4.60;;;;;;;;;;5028170;28;20041;-70
2022/06/28 06:58:42;;;;;;;5.10;4.70;;;;;;;;;;5011684;28;20133;-71
2022/06/28 07:01:09;;;;;;;9.25;5.30;;;;;;;;;;5011864;28;20041;-73
2022/06/28 07:03:35;;;;;;;6.47;3.80;;;;;;;;;;4995611;28;20107;-70
2022/06/28 07:06:01;;;;;;;7.53;4.85;;;;;;;;;;5011567;28;20038;-70
2022/06/28 07:08:27;;;;;;;7.03;4.38;;;;;;;;;;5029374;28;20053;-72
2022/06/28 07:10:59;;;;;;;8.13;4.63;;;;;;;;;;5027903;28;20061;-71
2022/06/28 07:13:25;;;;;;;4.55;4.20;;;;;;;;;;5011780;28;20042;-71
2022/06/28 07:15:52;;;;;;;7.53;4.32;;;;;;;;;;5027534;28;20045;-71
2022/06/28 07:18:22;;;;;;;4.75;4.10;;;;;;;;;;5011686;28;20049;-69
2022/06/28 07:20:51;;;;;;;4.57;4.18;;;;;;;;;;5027757;28;20110;-71
2022/06/28 07:23:17;;;;;;;4.07;3.77;;;;;;;;;;5012114;28;20060;-70
2022/06/28 07:25:43;;;;;;;4.65;4.10;;;;;;;;;;5027780;28;20506;-71
2022/06/28 07:28:10;;;;;;;4.95;3.40;;;;;;;;;;5011745;28;20911;-70
2022/06/28 07:30:36;;;;;;;5.28;3.67;;;;;;;;;;5027804;28;20077;-72
2022/06/28 07:33:03;;;;;;;5.90;3.50;;;;;;;;;;4994997;28;20183;-70
2022/06/28 07:35:29;;;;;;;4.57;3.60;;;;;;;;;;5029143;28;20057;-71
2022/06/28 07:37:55;;;;;;;3.97;3.00;;;;;;;;;;5028029;28;20040;-71
2022/06/28 07:40:41;;;;;;;4.03;3.67;;;;;;;;;;5029468;28;20153;-71
2022/06/28 07:43:33;;;;;;;5.13;3.80;;;;;;;;;;4995785;28;20124;-71
2022/06/28 07:46:09;;;;;;;3.75;3.45;;;;;;;;;;5011541;28;20045;-69
2022/06/28 07:48:35;;;;;;;5.07;3.50;;;;;;;;;;5029064;28;20073;-70
2022/06/28 07:53:50;;;;;;;;;;;;;;;;;;5011721;28;20049;-71
2022/06/28 07:56:29;;;;;;;3.70;3.40;;;;;;;;;;5011356;28;19967;-71
2022/06/28 07:58:55;;;;;;;7.88;3.03;;;;;;;;;;5011213;28;20128;-71
2022/06/28 08:01:26;;;;;;;5.53;3.20;;;;;;;;;;5029548;28;20048;-71
2022/06/28 08:03:52;;;;;;;5.28;3.00;;;;;;;;;;5014688;28;20095;-70
2022/06/28 08:06:19;;;;;;;3.08;2.88;;;;;;;;;;5032565;28;20045;-71
2022/06/28 08:09:02;;;;;;;4.88;2.97;;;;;;;;;;5014814;28;20049;-72
2022/06/28 08:11:28;;;;;;;2.67;2.47;;;;;;;;;;5031147;28;20045;-71
2022/06/28 08:13:57;;;;;;;;;;;;;;;;;;5015467;28;20120;-71
2022/06/28 08:16:25;;;;;;;8.43;2.70;;;;;;;;;;5014730;28;19912;-70
2022/06/28 08:18:51;;;;;;;9.68;2.70;;;;;;;;;;5032027;28;20542;-71
2022/06/28 08:21:17;;;;;;;3.58;3.00;;;;;;;;;;5014276;28;20131;-70
2022/06/28 08:23:43;;;;;;;2.70;2.50;;;;;;;;;;5031186;28;20537;-70
2022/06/28 08:26:09;;;;;;;4.30;2.70;;;;;;;;;;5015127;28;20052;-71
2022/06/28 08:28:35;;;;;;;4.55;2.80;;;;;;;;;;5032764;28;20056;-71
2022/06/28 08:31:01;;;;;;;7.38;2.70;;;;;;;;;;5031872;28;20049;-71
2022/06/28 08:33:27;;;;;;;3.08;2.50;;;;;;;;;;5014484;28;20055;-72
2022/06/28 08:35:54;;;;;;;2.95;2.65;;;;;;;;;;5031810;28;20042;-71
2022/06/28 08:38:19;;;;;;;2.70;2.50;;;;;;;;;;5032017;28;20052;-71
2022/06/28 08:40:45;;;;;;;3.70;2.40;;;;;;;;;;5031746;28;20064;-71
2022/06/28 08:43:11;;;;;;;3.03;2.60;;;;;;;;;;5014490;28;20042;-71
2022/06/28 08:45:37;;;;;;;6.93;2.17;;;;;;;;;;5031797;28;20545;-70
2022/06/28 08:48:13;;;;;;;4.10;2.40;;;;;;;;;;5013946;28;20092;-71
2022/06/28 08:50:40;;;;;;;5.40;2.28;;;;;;;;;;5013680;28;20054;-71
2022/06/28 08:53:07;;;;;;;5.95;2.70;;;;;;;;;;5031573;28;20510;-71
2022/06/28 08:55:33;;;;;;;6.47;2.08;;;;;;;;;;5031710;28;20045;-71
2022/06/28 08:57:59;;;;;;;2.97;2.35;;;;;;;;;;5031690;28;20179;-71
2022/06/28 09:00:25;;;;;;;9.30;2.45;;;;;;;;;;5031779;28;20115;-71
2022/06/28 09:02:51;;;;;;;5.53;2.40;;;;;;;;;;5031215;28;20025;-71
2022/06/28 09:05:17;;;;;;;2.20;2.03;;;;;;;;;;5031392;28;20571;-71
2022/06/28 09:07:44;;;;;;;3.53;1.75;;;;;;;;;;4981223;28;20502;-71
2022/06/28 09:10:10;;;;;;;2.28;1.95;;;;;;;;;;5031441;28;20085;-71
2022/06/28 09:12:36;;;;;;;4.25;2.10;;;;;;;;;;5031180;28;20102;-72
2022/06/28 09:15:04;;;;;;;5.10;1.88;;;;;;;;;;5031427;28;20132;-70
2022/06/28 09:17:30;;;;;;;7.50;2.10;;;;;;;;;;5031230;28;20539;-71
2022/06/28 09:19:57;;;;;;;4.55;1.95;;;;;;;;;;5031212;28;20056;-71
2022/06/28 09:22:30;;;;;;;5.57;1.83;;;;;;;;;;5014124;28;20041;-71
2022/06/28 09:24:56;;;;;;;8.48;1.90;;;;;;;;;;5030869;28;20050;-71
2022/06/28 09:27:26;;;;;;;4.45;1.80;;;;;;;;;;5030937;28;20125;-71
2022/06/28 09:29:52;;;;;;;4.65;1.60;;;;;;;;;;5030697;28;20115;-70
2022/06/28 09:32:28;;;;;;;5.80;1.90;;;;;;;;;;5031014;28;20049;-71
2022/06/28 09:34:55;;;;;;;2.63;1.80;;;;;;;;;;5030898;28;20557;-70
2022/06/28 09:37:31;;;;;;;3.75;1.83;;;;;;;;;;5030873;28;20048;-70
2022/06/28 09:39:57;;;;;;;5.45;1.70;;;;;;;;;;5030954;28;20089;-70
2022/06/28 09:42:23;;;;;;;1.70;1.60;;;;;;;;;;5031757;28;20143;-70
2022/06/28 09:44:52;;;;;;;2.00;1.70;;;;;;;;;;5031678;28;20034;-70
2022/06/28 09:47:18;;;;;;;2.30;1.55;;;;;;;;;;5031687;28;20049;-69
2022/06/28 09:49:47;;;;;;;3.35;1.40;;;;;;;;;;5013747;28;20037;-70
2022/06/28 09:52:13;;;;;;;3.20;1.80;;;;;;;;;;5030957;28;20052;-70
2022/06/28 09:54:39;;;;;;;1.80;1.70;;;;;;;;;;5030643;28;20037;-70
2022/06/28 09:57:04;;;;;;;6.00;1.90;;;;;;;;;;5012699;28;20115;-70
2022/06/28 09:59:30;;;;;;;1.80;1.70;;;;;;;;;;5012900;28;20038;-70
2022/06/28 10:01:57;;;;;;;5.57;2.00;;;;;;;;;;5012474;28;20099;-70
2022/06/28 10:04:46;;;;;;;1.92;1.83;;;;;;;;;;5015773;28;20241;-71
2022/06/28 10:07:12;;;;;;;4.25;1.70;;;;;;;;;;5012533;28;20056;-71
2022/06/28 10:09:38;;;;;;;1.90;1.60;;;;;;;;;;5012528;28;20048;-69
2022/06/28 10:15:02;;;;;;;2.65;1.85;;;;;;;;;;5030052;28;20513;-71
2022/06/28 10:17:34;;;;;;;3.08;1.65;;;;;;;;;;4998094;28;20540;-70
2022/06/28 10:20:10;;;;;;;3.42;1.60;;;;;;;;;;5028813;28;20049;-71
2022/06/28 10:22:36;;;;;;;4.00;2.05;;;;;;;;;;5012321;28;20033;-70
2022/06/28 10:25:02;;;;;;;4.60;1.90;;;;;;;;;;5029443;28;20481;-71
2022/06/28 10:27:29;;;;;;;2.67;2.10;;;;;;;;;;5028651;28;20037;-71
2022/06/28 10:30:07;;;;;;;2.55;2.35;;;;;;;;;;5011737;28;20552;-72
2022/06/28 10:32:44;;;;;;;3.47;1.90;;;;;;;;;;5029611;28;20128;-72
2022/06/28 10:35:10;;;;;;;3.35;1.70;;;;;;;;;;4995687;28;20161;-70
2022/06/28 10:37:36;;;;;;;4.38;1.67;;;;;;;;;;5029746;28;20117;-70
2022/06/28 10:40:20;;;;;;;2.13;1.60;;;;;;;;;;5011795;28;20514;-70
2022/06/28 10:42:50;;;;;;;1.80;1.70;;;;;;;;;;5029491;28;20037;-69
2022/06/28 10:45:16;;;;;;;7.22;1.90;;;;;;;;;;5029835;28;20068;-71
2022/06/28 10:48:00;;;;;;;1.77;1.67;;;;;;;;;;5029712;28;20041;-71
2022/06/28 10:50:26;;;;;;;3.33;1.60;;;;;;;;;;5029762;28;20057;-71
2022/06/28 10:53:00;;;;;;;2.15;1.50;;;;;;;;;;5011826;28;20033;-71
2022/06/28 10:55:26;;;;;;;4.80;1.50;;;;;;;;;;5028498;28;20053;-71
2022/06/28 10:58:05;;;;;;;2.65;1.38;;;;;;;;;;5011674;28;20041;-70
2022/06/28 11:00:34;;;;;;;2.83;1.40;;;;;;;;;;5029582;28;20482;-70
2022/06/28 11:03:01;;;;;;;2.00;1.45;;;;;;;;;;5029779;28;20108;-70
2022/06/28 11:05:47;;;;;;;2.40;1.45;;;;;;;;;;4995629;28;20095;-70
2022/06/28 11:08:17;;;;;;;1.98;1.52;;;;;;;;;;5015330;28;20045;-70
2022/06/28 11:11:02;;;;;;;2.58;1.50;;;;;;;;;;5029344;28;20083;-70
2022/06/28 11:13:28;;;;;;;4.70;2.03;;;;;;;;;;5029372;28;20401;-70
2022/06/28 11:15:54;;;;;;;4.13;1.80;;;;;;;;;;5011454;28;20088;-69
2022/06/28 11:18:22;;;;;;;2.25;1.50;;;;;;;;;;5011465;28;20474;-70
2022/06/28 11:20:48;;;;;;;2.15;1.40;;;;;;;;;;5029459;28;20514;-70
2022/06/28 11:23:30;;;;;;;1.25;1.00;;;;;;;;;;5011132;28;20094;-70
2022/06/28 11:28:56;;;;;;;4.95;1.63;;;;;;;;;;5029469;28;20664;-69
2022/06/28 11:31:23;;;;;;;3.63;1.65;;;;;;;;;;5029222;28;20049;-70
2022/06/28 11:33:49;;;;;;;2.10;1.90;;;;;;;;;;5029807;28;20112;-70
2022/06/28 11:36:33;;;;;;;5.20;2.40;;;;;;;;;;5013473;28;20041;-70
2022/06/28 11:39:03;;;;;;;7.55;1.77;;;;;;;;;;5033040;28;20048;-71
2022/06/28 11:41:32;;;;;;;7.43;1.50;;;;;;;;;;5015488;28;20049;-71
2022/06/28 11:43:59;;;;;;;2.03;1.90;;;;;;;;;;5032906;28;20047;-70
2022/06/28 11:46:26;;;;;;;5.13;1.85;;;;;;;;;;5015668;28;20772;-70
2022/06/28 11:48:52;;;;;;;1.60;1.50;;;;;;;;;;5033069;28;20038;-70
2022/06/28 11:51:25;;;;;;;4.22;1.77;;;;;;;;;;5032451;28;20057;-70
2022/06/28 11:53:51;;;;;;;3.90;1.50;;;;;;;;;;5033402;28;20048;-69
2022/06/28 11:56:17;;;;;;;4.45;1.50;;;;;;;;;;5032569;28;20464;-70
2022/06/28 11:58:44;;;;;;;6.75;1.42;;;;;;;;;;5032663;28;20041;-71
2022/06/28 12:01:13;;;;;;;7.65;1.77;;;;;;;;;;5014716;28;20038;-71
2022/06/28 12:03:42;;;;;;;6.65;1.73;;;;;;;;;;5032493;28;20064;-71
2022/06/28 12:06:08;;;;;;;4.30;2.72;;;;;;;;;;5032302;28;20068;-69
2022/06/28 12:08:40;;;;;;;6.63;1.75;;;;;;;;;;5032456;28;20038;-71
2022/06/28 12:11:06;;;;;;;1.60;1.33;;;;;;;;;;5032173;28;20471;-71
2022/06/28 12:13:32;;;;;;;2.58;1.80;;;;;;;;;;5014750;28;20044;-71
2022/06/28 12:15:58;;;;;;;2.28;1.38;;;;;;;;;;5032163;28;20045;-71
2022/06/28 12:18:24;;;;;;;2.08;1.25;;;;;;;;;;5032011;28;20053;-71
2022/06/28 12:20:54;;;;;;;2.88;1.95;;;;;;;;;;5032298;28;20045;-70
2022/06/28 12:23:20;;;;;;;2.08;1.52;;;;;;;;;;5031883;28;20399;-70
2022/06/28 12:25:46;;;;;;;8.98;2.25;;;;;;;;;;5032091;28;20131;-71
2022/06/28 12:28:11;;;;;;;2.47;1.40;;;;;;;;;;5013972;28;20195;-71
2022/06/28 12:30:38;;;;;;;6.28;1.70;;;;;;;;;;5032027;28;20474;-71
2022/06/28 12:33:04;;;;;;;5.18;1.52;;;;;;;;;;5011901;28;20127;-71
2022/06/28 12:35:30;;;;;;;4.43;1.27;;;;;;;;;;5048459;28;20064;-70
2022/06/28 12:37:56;;;;;;;3.10;1.27;;;;;;;;;;5052035;28;20037;-70
2022/06/28 12:40:24;;;;;;;1.90;1.50;;;;;;;;;;5052255;28;20551;-70
2022/06/28 12:42:50;;;;;;;6.93;1.42;;;;;;;;;;5051651;28;20054;-70
2022/06/28 12:45:15;;;;;;;2.20;1.70;;;;;;;;;;5052106;28;20501;-70
2022/06/28 12:47:42;;;;;;;5.15;1.50;;;;;;;;;;5033409;28;20056;-72
2022/06/28 12:50:10;;;;;;;7.68;1.67;;;;;;;;;;5051354;28;20053;-70
2022/06/28 12:52:36;;;;;;;1.33;1.25;;;;;;;;;;5051506;28;20051;-71
2022/06/28 12:55:02;;;;;;;1.20;1.10;;;;;;;;;;5016863;28;20036;-72
2022/06/28 12:57:28;;;;;;;3.97;1.25;;;;;;;;;;5033652;28;20052;-69
2022/06/28 12:59:55;;;;;;;1.73;1.48;;;;;;;;;;5051737;28;20037;-70
2022/06/28 13:02:21;;;;;;;2.70;1.20;;;;;;;;;;5051021;28;20083;-70
2022/06/28 13:04:48;;;;;;;5.55;1.25;;;;;;;;;;5051455;28;20049;-70
2022/06/28 13:07:14;;;;;;;1.60;0.95;;;;;;;;;;5050837;28;20129;-71
2022/06/28 13:09:40;;;;;;;5.47;1.27;;;;;;;;;;5050996;28;20049;-70
2022/06/28 13:12:06;;;;;;;2.60;1.40;;;;;;;;;;5050927;28;20049;-71
2022/06/28 13:14:32;;;;;;;5.10;1.30;;;;;;;;;;5051209;28;20091;-70
2022/06/28 13:16:58;;;;;;;3.13;1.40;;;;;;;;;;5050853;28;20049;-70
2022/06/28 13:19:24;;;;;;;1.30;1.20;;;;;;;;;;5051214;28;20037;-69
2022/06/28 13:21:50;;;;;;;4.68;1.13;;;;;;;;;;5051011;28;20047;-71
2022/06/28 13:24:17;;;;;;;1.40;1.20;;;;;;;;;;5050839;28;20413;-70
2022/06/28 13:26:43;;;;;;;5.30;1.15;;;;;;;;;;5050870;28;20443;-71
2022/06/28 13:29:10;;;;;;;5.63;1.45;;;;;;;;;;5051435;28;20147;-70
2022/06/28 13:31:36;;;;;;;1.58;1.13;;;;;;;;;;5051295;28;20067;-69
2022/06/28 13:34:03;;;;;;;1.58;1.10;;;;;;;;;;5051360;28;20040;-70
2022/06/28 13:36:30;;;;;;;4.43;1.00;;;;;;;;;;5034077;28;20052;-71
2022/06/28 13:38:56;;;;;;;4.47;1.48;;;;;;;;;;5051726;28;20036;-71
2022/06/28 13:41:22;;;;;;;0.82;0.82;;;;;;;;;;5033704;28;20040;-70
2022/06/28 13:43:48;;;;;;;1.92;1.10;;;;;;;;;;5033618;28;20135;-70
2022/06/28 13:46:14;;;;;;;7.47;1.40;;;;;;;;;;5050663;28;20131;-70
2022/06/28 13:48:40;;;;;;;2.90;1.20;;;;;;;;;;5050698;28;20045;-70
2022/06/28 13:51:06;;;;;;;2.60;1.15;;;;;;;;;;5050591;28;20083;-71
2022/06/28 13:53:32;;;;;;;1.70;1.20;;;;;;;;;;5050468;28;20045;-69
2022/06/28 13:56:00;;;;;;;2.90;1.23;;;;;;;;;;5050486;28;20051;-70
2022/06/28 13:58:27;;;;;;;1.05;1.02;;;;;;;;;;5049374;28;20047;-70
2022/06/28 14:00:53;;;;;;;5.38;1.38;;;;;;;;;;5032631;28;20041;-70
2022/06/28 14:03:19;;;;;;;2.22;1.38;;;;;;;;;;5050086;28;20048;-70
2022/06/28 14:05:45;;;;;;;6.07;1.65;;;;;;;;;;5049214;28;20110;-70
2022/06/28 14:08:10;;;;;;;1.77;1.60;;;;;;;;;;5049922;28;20037;-69
2022/06/28 14:10:36;;;;;;;1.48;1.35;;;;;;;;;;5049970;28;20068;-70
2022/06/28 14:13:03;;;;;;;5.28;2.03;;;;;;;;;;5048840;28;20090;-72
2022/06/28 14:15:29;;;;;;;2.20;2.00;;;;;;;;;;5016047;28;20239;-71
2022/06/28 14:17:55;;;;;;;2.15;1.50;;;;;;;;;;5032299;28;20063;-71
2022/06/28 14:20:22;;;;;;;2.85;1.30;;;;;;;;;;5049842;28;20048;-71
2022/06/28 14:22:48;;;;;;;8.57;1.90;;;;;;;;;;5050207;28;20120;-73
2022/06/28 14:25:14;;;;;;;3.00;1.67;;;;;;;;;;5032526;28;20041;-71
2022/06/28 14:27:40;;;;;;;8.60;1.77;;;;;;;;;;5050504;28;20605;-69
2022/06/28 14:30:06;;;;;;;6.28;1.65;;;;;;;;;;5049578;28;20175;-71
2022/06/28 14:32:32;;;;;;;2.67;1.55;;;;;;;;;;5032460;28;20106;-70
2022/06/28 14:34:58;;;;;;;1.27;1.08;;;;;;;;;;5050627;28;20037;-70
2022/06/28 14:37:24;;;;;;;3.92;1.30;;;;;;;;;;5049359;28;20049;-70
2022/06/28 14:39:50;;;;;;;2.80;1.17;;;;;;;;;;5049833;28;20091;-71
2022/06/28 14:42:16;;;;;;;5.78;1.60;;;;;;;;;;5048061;28;20048;-71
2022/06/28 14:44:42;;;;;;;3.20;1.42;;;;;;;;;;5049661;28;20083;-70
2022/06/28 14:47:08;;;;;;;5.97;1.50;;;;;;;;;;5049252;28;20037;-71
2022/06/28 14:49:35;;;;;;;5.32;2.00;;;;;;;;;;5031755;28;20072;-72
2022/06/28 14:52:01;;;;;;;3.08;1.92;;;;;;;;;;5049104;28;20055;-71
2022/06/28 14:54:28;;;;;;;3.00;1.40;;;;;;;;;;5049083;28;20045;-71
2022/06/28 14:56:54;;;;;;;3.17;1.17;;;;;;;;;;5048943;28;20037;-71
2022/06/28 14:59:20;;;;;;;4.40;1.42;;;;;;;;;;5049263;28;20072;-70